Time;durP1;ratioP1;P1;durP2;ratioP2;P2;SDS_P1;SDS_P2;PMS_P1;PMS_P2;Temp;Humidity;BMP_temperature;BMP_pressure;BME280_temperature;BME280_humidity;BME280_pressure;Samples;Min_cycle;Max_cycle;Signal;HPM_P1;HPM_P2
2021/06/26 00:01:37;;;;;;;2.05;1.95;;;;;;;;;;5006129;28;20220;-45
2021/06/26 00:04:03;;;;;;;2.38;2.17;;;;;;;;;;5029880;28;20208;-45
2021/06/26 00:06:29;;;;;;;2.95;2.08;;;;;;;;;;5009238;28;20184;-45
2021/06/26 00:08:55;;;;;;;2.20;2.08;;;;;;;;;;5018136;28;20460;-45
2021/06/26 00:11:22;;;;;;;2.60;2.40;;;;;;;;;;5009705;28;20232;-45
2021/06/26 00:13:48;;;;;;;2.67;2.20;;;;;;;;;;5013921;28;20180;-45
2021/06/26 00:16:14;;;;;;;2.38;2.28;;;;;;;;;;5008130;28;20265;-45
2021/06/26 00:18:40;;;;;;;3.40;2.10;;;;;;;;;;4998401;28;20192;-45
2021/06/26 00:21:06;;;;;;;2.65;2.20;;;;;;;;;;4998396;28;20165;-45
2021/06/26 00:23:32;;;;;;;2.55;2.13;;;;;;;;;;4998288;28;20536;-45
2021/06/26 00:25:58;;;;;;;2.65;2.28;;;;;;;;;;5000549;28;21132;-45
2021/06/26 00:28:24;;;;;;;3.85;2.40;;;;;;;;;;5008175;28;20253;-45
2021/06/26 00:30:50;;;;;;;3.88;2.35;;;;;;;;;;5002819;28;20196;-45
2021/06/26 00:33:16;;;;;;;2.22;2.08;;;;;;;;;;5004804;28;20252;-45
2021/06/26 00:35:42;;;;;;;2.92;2.20;;;;;;;;;;4997947;28;20264;-45
2021/06/26 00:38:08;;;;;;;2.38;2.22;;;;;;;;;;5016062;28;20176;-45
2021/06/26 00:40:34;;;;;;;2.70;2.17;;;;;;;;;;5015491;28;20184;-45
2021/06/26 00:43:00;;;;;;;2.25;2.05;;;;;;;;;;5008036;28;20205;-45
2021/06/26 00:45:26;;;;;;;3.00;2.20;;;;;;;;;;4999209;28;20284;-45
2021/06/26 00:47:52;;;;;;;2.20;2.03;;;;;;;;;;5007386;28;20188;-45
2021/06/26 00:50:22;;;;;;;2.92;2.22;;;;;;;;;;4997719;28;20247;-45
2021/06/26 00:52:48;;;;;;;2.78;1.80;;;;;;;;;;5014116;28;20191;-45
2021/06/26 00:55:15;;;;;;;2.40;2.15;;;;;;;;;;5006957;28;20185;-45
2021/06/26 00:57:43;;;;;;;2.40;2.30;;;;;;;;;;4997088;28;20173;-45
2021/06/26 01:00:09;;;;;;;2.42;2.00;;;;;;;;;;5003553;28;20575;-45
2021/06/26 01:02:35;;;;;;;2.03;1.92;;;;;;;;;;5014949;28;20184;-45
2021/06/26 01:05:01;;;;;;;2.38;2.17;;;;;;;;;;5017025;28;20566;-45
2021/06/26 01:07:27;;;;;;;2.08;1.95;;;;;;;;;;5008178;28;20192;-45
2021/06/26 01:09:53;;;;;;;2.05;1.95;;;;;;;;;;4998873;28;20271;-45
2021/06/26 01:12:19;;;;;;;2.70;1.98;;;;;;;;;;5010603;28;20432;-45
2021/06/26 01:14:45;;;;;;;2.10;2.00;;;;;;;;;;4997152;28;20220;-45
2021/06/26 01:17:11;;;;;;;4.47;2.03;;;;;;;;;;5008620;28;20492;-45
2021/06/26 01:19:37;;;;;;;2.17;2.00;;;;;;;;;;4998287;28;20189;-45
2021/06/26 01:22:06;;;;;;;4.93;1.90;;;;;;;;;;4998658;28;20220;-45
2021/06/26 01:24:32;;;;;;;2.05;1.95;;;;;;;;;;5016950;28;20499;-45
2021/06/26 01:26:58;;;;;;;2.30;1.80;;;;;;;;;;5015695;28;20776;-45
2021/06/26 01:29:29;;;;;;;2.22;1.90;;;;;;;;;;4997626;28;20227;-45
2021/06/26 01:31:55;;;;;;;1.95;1.80;;;;;;;;;;4998185;28;20187;-45
2021/06/26 01:34:21;;;;;;;3.30;2.05;;;;;;;;;;4996894;28;20170;-45
2021/06/26 01:36:47;;;;;;;2.00;1.90;;;;;;;;;;5006914;28;20230;-45
2021/06/26 01:39:13;;;;;;;2.70;1.92;;;;;;;;;;4999324;28;20568;-45
2021/06/26 01:41:39;;;;;;;2.28;1.95;;;;;;;;;;4996630;28;20492;-45
2021/06/26 01:44:05;;;;;;;2.00;1.90;;;;;;;;;;5009640;28;20539;-46
2021/06/26 01:46:33;;;;;;;2.38;2.10;;;;;;;;;;5006678;28;20233;-45
2021/06/26 01:49:09;;;;;;;2.08;1.98;;;;;;;;;;5012235;28;20227;-45
2021/06/26 01:51:36;;;;;;;2.17;1.95;;;;;;;;;;5004109;28;20555;-45
2021/06/26 01:54:04;;;;;;;3.83;1.90;;;;;;;;;;5015555;28;20168;-45
2021/06/26 01:56:30;;;;;;;2.38;2.15;;;;;;;;;;5015640;28;20196;-45
2021/06/26 01:58:56;;;;;;;2.55;2.08;;;;;;;;;;5009232;28;20180;-45
2021/06/26 02:01:22;;;;;;;1.77;1.67;;;;;;;;;;5009484;28;20208;-45
2021/06/26 02:03:48;;;;;;;2.40;1.60;;;;;;;;;;4998769;28;20308;-45
2021/06/26 02:06:14;;;;;;;1.90;1.80;;;;;;;;;;5003458;28;20191;-45
2021/06/26 02:08:40;;;;;;;2.22;2.03;;;;;;;;;;5014703;28;20184;-45
2021/06/26 02:11:06;;;;;;;2.53;2.08;;;;;;;;;;5009462;28;20177;-45
2021/06/26 02:13:32;;;;;;;2.85;2.20;;;;;;;;;;4996321;28;20191;-44
2021/06/26 02:15:58;;;;;;;2.15;1.95;;;;;;;;;;5012357;28;20186;-45
2021/06/26 02:18:24;;;;;;;2.95;2.08;;;;;;;;;;4996365;28;20193;-45
2021/06/26 02:20:50;;;;;;;3.83;1.95;;;;;;;;;;4995856;28;20520;-45
2021/06/26 02:23:16;;;;;;;2.13;1.80;;;;;;;;;;4995769;28;20189;-45
2021/06/26 02:25:42;;;;;;;2.70;2.00;;;;;;;;;;5006341;28;20336;-45
2021/06/26 02:28:08;;;;;;;3.40;1.85;;;;;;;;;;4996180;28;20209;-45
2021/06/26 02:30:34;;;;;;;2.70;1.90;;;;;;;;;;5004599;28;20215;-45
2021/06/26 02:33:00;;;;;;;1.95;1.85;;;;;;;;;;4995699;28;20185;-45
2021/06/26 02:35:26;;;;;;;1.60;1.50;;;;;;;;;;4995639;28;20220;-45
2021/06/26 02:37:52;;;;;;;2.30;2.00;;;;;;;;;;4999086;28;20200;-45
2021/06/26 02:40:18;;;;;;;2.92;1.90;;;;;;;;;;4995744;28;20646;-45
2021/06/26 02:42:44;;;;;;;2.08;1.98;;;;;;;;;;4995635;28;20193;-45
2021/06/26 02:45:10;;;;;;;1.98;1.88;;;;;;;;;;4996631;28;20279;-45
2021/06/26 02:47:37;;;;;;;2.45;2.17;;;;;;;;;;5005959;28;20181;-45
2021/06/26 02:50:04;;;;;;;2.25;1.70;;;;;;;;;;4999780;28;20196;-45
2021/06/26 02:52:30;;;;;;;2.00;1.90;;;;;;;;;;5014847;28;20508;-45
2021/06/26 02:54:56;;;;;;;2.85;1.80;;;;;;;;;;5015161;28;20199;-45
2021/06/26 02:57:22;;;;;;;1.95;1.80;;;;;;;;;;5014537;28;20545;-45
2021/06/26 02:59:48;;;;;;;1.70;1.60;;;;;;;;;;5011998;28;20212;-45
2021/06/26 03:02:15;;;;;;;1.65;1.55;;;;;;;;;;5004747;28;20208;-45
2021/06/26 03:04:41;;;;;;;1.80;1.70;;;;;;;;;;4996136;28;20228;-45
2021/06/26 03:07:07;;;;;;;1.77;1.67;;;;;;;;;;4994465;28;20207;-45
2021/06/26 03:09:33;;;;;;;2.00;1.52;;;;;;;;;;4995228;28;20209;-45
2021/06/26 03:11:59;;;;;;;1.33;1.30;;;;;;;;;;5006387;28;20200;-45
2021/06/26 03:14:25;;;;;;;1.70;1.60;;;;;;;;;;5002906;28;20246;-45
2021/06/26 03:16:51;;;;;;;1.70;1.60;;;;;;;;;;5006763;28;20559;-45
2021/06/26 03:19:17;;;;;;;1.90;1.55;;;;;;;;;;5026920;28;20267;-45
2021/06/26 03:21:43;;;;;;;1.67;1.55;;;;;;;;;;5005294;28;20189;-45
2021/06/26 03:24:09;;;;;;;1.60;1.50;;;;;;;;;;4995226;28;20181;-45
2021/06/26 03:26:35;;;;;;;2.35;1.60;;;;;;;;;;5004778;28;20480;-45
2021/06/26 03:29:02;;;;;;;2.00;1.60;;;;;;;;;;5001434;28;20196;-45
2021/06/26 03:31:28;;;;;;;1.70;1.60;;;;;;;;;;5009459;28;20184;-44
2021/06/26 03:33:54;;;;;;;2.35;1.80;;;;;;;;;;4998595;28;20197;-44
2021/06/26 03:36:20;;;;;;;1.63;1.52;;;;;;;;;;5007452;28;20645;-44
2021/06/26 03:38:46;;;;;;;1.50;1.40;;;;;;;;;;4998681;28;20181;-45
2021/06/26 03:41:12;;;;;;;1.92;1.70;;;;;;;;;;4995130;28;20445;-45
2021/06/26 03:43:38;;;;;;;1.42;1.33;;;;;;;;;;5003402;28;20440;-45
2021/06/26 03:46:05;;;;;;;1.50;1.40;;;;;;;;;;5006914;28;21196;-45
2021/06/26 03:48:31;;;;;;;1.30;1.30;;;;;;;;;;4995088;28;20559;-45
2021/06/26 03:50:59;;;;;;;1.95;1.48;;;;;;;;;;5008125;28;20634;-45
2021/06/26 03:53:25;;;;;;;1.40;1.40;;;;;;;;;;5007089;28;20209;-44
2021/06/26 03:55:51;;;;;;;3.60;1.80;;;;;;;;;;5002814;28;20181;-45
2021/06/26 03:58:24;;;;;;;1.42;1.33;;;;;;;;;;5001586;28;20173;-45
2021/06/26 04:00:51;;;;;;;2.58;1.58;;;;;;;;;;4998961;28;20181;-45
2021/06/26 04:03:18;;;;;;;3.20;1.70;;;;;;;;;;5013905;28;20242;-45
2021/06/26 04:05:44;;;;;;;1.63;1.35;;;;;;;;;;5014371;28;20261;-45
2021/06/26 04:08:10;;;;;;;4.57;1.73;;;;;;;;;;5014061;28;20234;-45
2021/06/26 04:10:37;;;;;;;3.90;2.13;;;;;;;;;;5011992;28;20205;-45
2021/06/26 04:13:03;;;;;;;3.05;1.92;;;;;;;;;;5005350;28;20232;-45
2021/06/26 04:15:29;;;;;;;3.25;2.10;;;;;;;;;;4995819;28;20236;-45
2021/06/26 04:17:55;;;;;;;1.92;1.80;;;;;;;;;;4995434;28;20441;-45
2021/06/26 04:20:21;;;;;;;5.13;2.10;;;;;;;;;;4998177;28;20173;-45
2021/06/26 04:22:47;;;;;;;2.38;2.15;;;;;;;;;;4998045;28;20173;-45
2021/06/26 04:25:17;;;;;;;4.13;2.05;;;;;;;;;;5004693;28;20615;-45
2021/06/26 04:27:43;;;;;;;5.72;2.10;;;;;;;;;;4997749;28;20626;-45
2021/06/26 04:30:09;;;;;;;4.32;2.55;;;;;;;;;;4999053;28;20474;-45
2021/06/26 04:32:37;;;;;;;5.03;2.63;;;;;;;;;;5008831;28;20231;-47
2021/06/26 04:35:10;;;;;;;3.25;1.92;;;;;;;;;;4997993;28;20165;-45
2021/06/26 04:37:37;;;;;;;4.22;2.05;;;;;;;;;;5011150;28;20267;-45
2021/06/26 04:40:04;;;;;;;5.53;3.15;;;;;;;;;;5012214;28;20185;-45
2021/06/26 04:42:29;;;;;;;4.80;3.15;;;;;;;;;;4997841;28;20212;-45
2021/06/26 04:44:57;;;;;;;7.00;2.70;;;;;;;;;;4998539;28;20526;-45
2021/06/26 04:47:23;;;;;;;7.05;2.03;;;;;;;;;;5008127;28;20180;-45
2021/06/26 04:49:49;;;;;;;2.95;2.10;;;;;;;;;;5009605;28;20599;-45
2021/06/26 04:52:15;;;;;;;3.85;1.92;;;;;;;;;;5017214;28;20179;-45
2021/06/26 04:54:41;;;;;;;3.78;2.45;;;;;;;;;;5017347;28;20196;-44
2021/06/26 04:57:07;;;;;;;3.25;2.50;;;;;;;;;;5016722;28;20192;-45
2021/06/26 04:59:33;;;;;;;3.03;2.35;;;;;;;;;;5017068;28;20169;-45
2021/06/26 05:01:59;;;;;;;4.18;2.28;;;;;;;;;;5000911;28;20185;-45
2021/06/26 05:04:25;;;;;;;4.13;2.33;;;;;;;;;;4997890;28;20216;-45
2021/06/26 05:06:51;;;;;;;4.03;2.50;;;;;;;;;;4996815;28;20409;-45
2021/06/26 05:09:17;;;;;;;4.32;2.67;;;;;;;;;;4997171;28;20268;-45
2021/06/26 05:11:43;;;;;;;4.30;2.33;;;;;;;;;;5008385;28;20493;-45
2021/06/26 05:14:10;;;;;;;3.70;2.95;;;;;;;;;;5013989;28;20188;-45
2021/06/26 05:16:36;;;;;;;4.43;2.63;;;;;;;;;;5004507;28;20449;-44
2021/06/26 05:19:02;;;;;;;5.13;2.63;;;;;;;;;;5015404;28;20490;-44
2021/06/26 05:21:28;;;;;;;3.10;2.20;;;;;;;;;;5011119;28;20544;-44
2021/06/26 05:23:54;;;;;;;2.50;2.30;;;;;;;;;;4997095;28;20262;-44
2021/06/26 05:26:20;;;;;;;4.47;2.60;;;;;;;;;;5014050;28;20180;-44
2021/06/26 05:28:46;;;;;;;3.58;2.58;;;;;;;;;;5014923;28;20447;-44
2021/06/26 05:31:12;;;;;;;8.23;2.80;;;;;;;;;;5008391;28;20188;-44
2021/06/26 05:33:39;;;;;;;4.85;2.38;;;;;;;;;;5012045;28;20187;-44
2021/06/26 05:36:05;;;;;;;2.88;2.67;;;;;;;;;;5013862;28;20172;-44
2021/06/26 05:38:31;;;;;;;6.00;3.53;;;;;;;;;;4996644;28;20181;-44
2021/06/26 05:40:57;;;;;;;3.58;2.78;;;;;;;;;;4996736;28;20541;-44
2021/06/26 05:43:23;;;;;;;3.55;2.60;;;;;;;;;;4996432;28;20193;-44
2021/06/26 05:45:49;;;;;;;4.00;2.85;;;;;;;;;;5000603;28;20447;-44
2021/06/26 05:48:15;;;;;;;6.00;2.63;;;;;;;;;;5005489;28;20181;-44
2021/06/26 05:50:41;;;;;;;3.75;2.40;;;;;;;;;;5016146;28;20202;-44
2021/06/26 05:53:07;;;;;;;2.92;2.63;;;;;;;;;;5015772;28;20185;-44
2021/06/26 05:55:33;;;;;;;3.15;2.90;;;;;;;;;;5000755;28;20181;-44
2021/06/26 05:58:00;;;;;;;6.20;3.15;;;;;;;;;;5013166;28;20184;-44
2021/06/26 06:00:32;;;;;;;6.03;3.38;;;;;;;;;;5013915;28;20567;-44
2021/06/26 06:02:58;;;;;;;4.68;3.10;;;;;;;;;;5015706;28;20524;-44
2021/06/26 06:05:24;;;;;;;3.40;3.10;;;;;;;;;;5015697;28;20212;-44
2021/06/26 06:07:50;;;;;;;3.83;3.00;;;;;;;;;;5015399;28;20498;-44
2021/06/26 06:10:17;;;;;;;4.07;3.20;;;;;;;;;;5015468;28;20203;-44
2021/06/26 06:12:43;;;;;;;3.42;3.13;;;;;;;;;;4997260;28;20236;-44
2021/06/26 06:15:10;;;;;;;3.65;3.33;;;;;;;;;;4997127;28;20187;-44
2021/06/26 06:17:36;;;;;;;3.67;3.13;;;;;;;;;;5006294;28;20203;-44
2021/06/26 06:20:04;;;;;;;3.97;3.67;;;;;;;;;;4996035;28;20277;-44
2021/06/26 06:22:31;;;;;;;5.57;3.92;;;;;;;;;;5009672;28;20177;-44
2021/06/26 06:24:57;;;;;;;3.42;3.15;;;;;;;;;;5011999;28;20251;-44
2021/06/26 06:27:23;;;;;;;4.45;3.17;;;;;;;;;;5014503;28;20247;-44
2021/06/26 06:29:49;;;;;;;5.45;3.25;;;;;;;;;;5015072;28;20243;-44
2021/06/26 06:32:15;;;;;;;5.78;3.58;;;;;;;;;;5003094;28;20455;-45
2021/06/26 06:34:41;;;;;;;3.55;3.25;;;;;;;;;;5021677;28;20348;-45
2021/06/26 06:37:07;;;;;;;7.13;2.90;;;;;;;;;;5017503;28;20231;-45
2021/06/26 06:39:33;;;;;;;5.05;3.00;;;;;;;;;;5001911;28;20544;-45
2021/06/26 06:41:59;;;;;;;3.42;3.13;;;;;;;;;;4995869;28;20188;-45
2021/06/26 06:44:26;;;;;;;3.72;2.83;;;;;;;;;;4995661;28;20250;-45
2021/06/26 06:46:52;;;;;;;3.50;3.13;;;;;;;;;;4998946;28;20180;-45
2021/06/26 06:49:18;;;;;;;6.00;3.10;;;;;;;;;;5014515;28;20207;-45
2021/06/26 06:51:44;;;;;;;3.50;3.20;;;;;;;;;;5015379;28;20169;-45
2021/06/26 06:54:10;;;;;;;3.50;3.20;;;;;;;;;;5015122;28;20187;-44
2021/06/26 06:56:36;;;;;;;3.85;3.00;;;;;;;;;;5014917;28;20240;-44
2021/06/26 06:59:02;;;;;;;5.07;2.88;;;;;;;;;;5005764;28;20541;-44
2021/06/26 07:01:28;;;;;;;4.88;3.03;;;;;;;;;;5005446;28;20191;-45
2021/06/26 07:03:54;;;;;;;4.78;3.20;;;;;;;;;;5013608;28;20180;-45
2021/06/26 07:06:20;;;;;;;3.60;3.30;;;;;;;;;;5013023;28;20275;-45
2021/06/26 07:08:46;;;;;;;6.28;3.55;;;;;;;;;;5013255;28;20165;-45
2021/06/26 07:11:12;;;;;;;4.95;3.65;;;;;;;;;;5006304;28;20552;-45
2021/06/26 07:13:38;;;;;;;3.95;3.65;;;;;;;;;;4996115;28;20196;-45
2021/06/26 07:16:04;;;;;;;6.18;4.13;;;;;;;;;;5007495;28;20596;-45
2021/06/26 07:18:30;;;;;;;7.03;4.03;;;;;;;;;;5009303;28;20208;-45
2021/06/26 07:20:56;;;;;;;4.45;4.05;;;;;;;;;;5013687;28;20266;-45
2021/06/26 07:23:22;;;;;;;5.97;3.92;;;;;;;;;;4994916;28;20174;-45
2021/06/26 07:25:48;;;;;;;4.50;4.10;;;;;;;;;;5009601;28;20177;-45
2021/06/26 07:28:14;;;;;;;4.43;4.03;;;;;;;;;;4999574;28;20184;-45
2021/06/26 07:30:40;;;;;;;4.13;3.72;;;;;;;;;;5012685;28;20623;-45
2021/06/26 07:33:06;;;;;;;4.10;3.50;;;;;;;;;;5014668;28;20215;-45
2021/06/26 07:35:32;;;;;;;4.32;3.92;;;;;;;;;;5014649;28;20183;-45
2021/06/26 07:37:58;;;;;;;4.88;4.38;;;;;;;;;;5007751;28;20551;-45
2021/06/26 07:40:25;;;;;;;5.03;4.45;;;;;;;;;;4994892;28;20173;-45
2021/06/26 07:42:51;;;;;;;4.60;3.75;;;;;;;;;;5003023;28;20606;-45
2021/06/26 07:45:17;;;;;;;5.80;5.20;;;;;;;;;;5012731;28;20182;-45
2021/06/26 07:47:43;;;;;;;7.28;6.57;;;;;;;;;;4995116;28;20240;-44
2021/06/26 07:50:09;;;;;;;6.63;6.00;;;;;;;;;;4994757;28;20255;-44
2021/06/26 07:52:35;;;;;;;6.05;5.55;;;;;;;;;;5006995;28;20208;-44
2021/06/26 07:55:02;;;;;;;4.80;4.40;;;;;;;;;;5015837;28;20196;-44
2021/06/26 07:57:28;;;;;;;4.35;4.00;;;;;;;;;;5009533;28;20181;-45
2021/06/26 07:59:54;;;;;;;5.20;4.70;;;;;;;;;;5017056;28;20175;-45
2021/06/26 08:02:20;;;;;;;4.60;4.00;;;;;;;;;;5006458;28;20177;-45
2021/06/26 08:04:46;;;;;;;4.70;4.30;;;;;;;;;;5006366;28;20192;-45
2021/06/26 08:07:11;;;;;;;5.35;4.65;;;;;;;;;;5016751;28;20591;-45
2021/06/26 08:09:37;;;;;;;5.05;4.65;;;;;;;;;;5017475;28;20204;-45
2021/06/26 08:12:04;;;;;;;5.55;4.50;;;;;;;;;;5010237;28;20208;-45
2021/06/26 08:14:30;;;;;;;4.45;4.05;;;;;;;;;;4999652;28;20284;-47
2021/06/26 08:16:56;;;;;;;4.68;4.13;;;;;;;;;;5000273;28;20215;-45
2021/06/26 08:19:22;;;;;;;5.38;4.53;;;;;;;;;;5000538;28;20165;-45
2021/06/26 08:21:48;;;;;;;5.78;4.40;;;;;;;;;;5000556;28;20437;-45
2021/06/26 08:24:14;;;;;;;5.03;3.80;;;;;;;;;;5000568;28;20181;-45
2021/06/26 08:26:40;;;;;;;6.68;4.15;;;;;;;;;;5000358;28;20176;-45
2021/06/26 08:29:06;;;;;;;4.78;4.28;;;;;;;;;;5000446;28;20197;-45
2021/06/26 08:31:32;;;;;;;6.25;4.28;;;;;;;;;;5000446;28;20173;-45
2021/06/26 08:33:58;;;;;;;4.93;4.53;;;;;;;;;;5000404;28;20172;-47
2021/06/26 08:36:24;;;;;;;3.72;3.42;;;;;;;;;;5000119;28;20169;-45
2021/06/26 08:38:50;;;;;;;4.55;4.15;;;;;;;;;;5000256;28;20166;-45
2021/06/26 08:41:18;;;;;;;4.97;4.57;;;;;;;;;;5000258;28;20169;-45
2021/06/26 08:43:44;;;;;;;4.45;3.97;;;;;;;;;;5000305;28;20244;-45
2021/06/26 08:46:10;;;;;;;6.63;5.60;;;;;;;;;;4999878;28;20200;-45
2021/06/26 08:48:38;;;;;;;4.70;4.30;;;;;;;;;;5000079;28;20586;-45
2021/06/26 08:51:04;;;;;;;4.47;4.07;;;;;;;;;;5000034;28;20201;-45
2021/06/26 08:53:30;;;;;;;4.60;4.20;;;;;;;;;;5000048;28;20189;-45
2021/06/26 08:55:56;;;;;;;4.25;3.88;;;;;;;;;;4999742;28;20169;-45
2021/06/26 08:58:22;;;;;;;4.10;3.80;;;;;;;;;;4999867;28;20249;-45
2021/06/26 09:00:49;;;;;;;5.68;3.88;;;;;;;;;;4999898;28;20193;-45
2021/06/26 09:03:16;;;;;;;4.18;3.88;;;;;;;;;;4999295;28;20181;-45
2021/06/26 09:05:43;;;;;;;3.80;3.50;;;;;;;;;;4999152;28;20200;-45
2021/06/26 09:11:17;;;;;;;4.18;3.70;;;;;;;;;;4999775;28;20283;-46
2021/06/26 09:13:43;;;;;;;4.28;3.97;;;;;;;;;;4998738;28;20264;-45
2021/06/26 09:16:15;;;;;;;4.78;4.07;;;;;;;;;;5000505;28;20215;-45
2021/06/26 09:18:44;;;;;;;4.97;4.20;;;;;;;;;;5007747;28;20447;-45
2021/06/26 09:21:29;;;;;;;4.20;3.90;;;;;;;;;;5010944;28;20260;-45
2021/06/26 09:24:06;;;;;;;3.85;3.55;;;;;;;;;;5000986;28;20189;-46
2021/06/26 09:26:36;;;;;;;5.63;5.13;;;;;;;;;;5005998;28;20208;-46
2021/06/26 09:29:15;;;;;;;4.95;4.47;;;;;;;;;;5000250;28;20254;-46
2021/06/26 09:31:51;;;;;;;5.18;4.72;;;;;;;;;;4995187;28;20194;-46
2021/06/26 09:34:17;;;;;;;4.97;4.45;;;;;;;;;;5002429;28;20255;-46
2021/06/26 09:36:44;;;;;;;4.07;3.78;;;;;;;;;;5006512;28;20259;-46
2021/06/26 09:39:11;;;;;;;4.40;3.97;;;;;;;;;;4999698;28;20177;-46
2021/06/26 09:41:40;;;;;;;4.18;3.88;;;;;;;;;;5000187;28;20269;-46
2021/06/26 09:44:09;;;;;;;4.43;4.03;;;;;;;;;;5005124;28;20568;-46
2021/06/26 09:46:44;;;;;;;4.32;3.78;;;;;;;;;;5006344;28;20239;-46
2021/06/26 09:49:10;;;;;;;4.28;3.97;;;;;;;;;;5014012;28;20195;-46
2021/06/26 09:51:36;;;;;;;4.75;4.25;;;;;;;;;;5003693;28;20181;-46
2021/06/26 09:54:04;;;;;;;4.45;4.10;;;;;;;;;;5004154;28;20173;-46
2021/06/26 09:56:38;;;;;;;4.18;3.80;;;;;;;;;;5008918;28;20652;-46
2021/06/26 09:59:04;;;;;;;4.65;4.22;;;;;;;;;;5002458;28;20181;-46
2021/06/26 10:01:32;;;;;;;4.53;4.18;;;;;;;;;;5001338;28;20494;-46
2021/06/26 10:03:59;;;;;;;4.80;4.40;;;;;;;;;;5008124;28;20192;-46
2021/06/26 10:06:24;;;;;;;5.20;4.65;;;;;;;;;;5013608;28;20218;-46
2021/06/26 10:08:51;;;;;;;4.80;4.40;;;;;;;;;;5006313;28;20579;-46
2021/06/26 10:11:18;;;;;;;4.88;4.35;;;;;;;;;;5001212;28;20484;-46
2021/06/26 10:13:44;;;;;;;4.78;3.97;;;;;;;;;;5006044;28;20247;-46
2021/06/26 10:16:11;;;;;;;4.90;4.50;;;;;;;;;;4995206;28;20169;-46
2021/06/26 10:18:40;;;;;;;4.38;3.97;;;;;;;;;;4996256;28;20176;-46
2021/06/26 10:21:06;;;;;;;4.35;3.95;;;;;;;;;;5014869;28;20469;-46
2021/06/26 10:23:35;;;;;;;4.50;4.15;;;;;;;;;;5008523;28;20268;-46
2021/06/26 10:26:02;;;;;;;4.75;4.25;;;;;;;;;;4995836;28;20173;-46
2021/06/26 10:28:28;;;;;;;4.97;4.47;;;;;;;;;;4996022;28;20181;-46
2021/06/26 10:31:11;;;;;;;4.70;4.30;;;;;;;;;;4995738;28;20220;-46
2021/06/26 10:33:38;;;;;;;4.43;4.05;;;;;;;;;;5011494;28;20184;-46
2021/06/26 10:36:04;;;;;;;4.43;4.03;;;;;;;;;;5012888;28;20193;-46
2021/06/26 10:38:59;;;;;;;4.75;4.25;;;;;;;;;;5010927;28;20793;-46
2021/06/26 10:41:25;;;;;;;4.15;3.85;;;;;;;;;;5006909;28;20192;-46
2021/06/26 10:43:55;;;;;;;4.63;4.22;;;;;;;;;;5015509;28;20441;-46
2021/06/26 10:46:21;;;;;;;4.75;4.28;;;;;;;;;;5013040;28;20192;-46
2021/06/26 10:48:56;;;;;;;4.22;3.88;;;;;;;;;;5015562;28;20893;-46
2021/06/26 10:51:32;;;;;;;4.18;3.88;;;;;;;;;;5001642;28;20565;-46
2021/06/26 10:54:09;;;;;;;5.70;4.38;;;;;;;;;;5006574;28;20254;-46
2021/06/26 10:56:35;;;;;;;4.47;4.10;;;;;;;;;;5014758;28;20168;-46
2021/06/26 10:59:08;;;;;;;4.90;4.32;;;;;;;;;;5015162;28;20168;-46
2021/06/26 11:01:34;;;;;;;4.40;4.00;;;;;;;;;;5014830;28;20178;-46
2021/06/26 11:04:11;;;;;;;4.88;4.47;;;;;;;;;;5013599;28;20223;-46
2021/06/26 11:06:38;;;;;;;5.13;4.72;;;;;;;;;;5010346;28;20430;-46
2021/06/26 11:09:08;;;;;;;4.13;3.72;;;;;;;;;;5004498;28;20256;-46
2021/06/26 11:11:39;;;;;;;4.57;4.15;;;;;;;;;;5005361;28;20183;-46
2021/06/26 11:14:06;;;;;;;4.38;4.00;;;;;;;;;;5014035;28;20243;-46
2021/06/26 11:16:32;;;;;;;4.72;4.32;;;;;;;;;;5006546;28;20273;-46
2021/06/26 11:18:58;;;;;;;4.70;4.30;;;;;;;;;;5012139;28;20551;-46
2021/06/26 11:21:24;;;;;;;4.90;4.50;;;;;;;;;;5013198;28;20185;-46
2021/06/26 11:23:53;;;;;;;4.80;4.40;;;;;;;;;;5003031;28;20281;-46
2021/06/26 11:26:19;;;;;;;5.25;4.75;;;;;;;;;;5014042;28;20164;-46
2021/06/26 11:28:45;;;;;;;5.05;4.50;;;;;;;;;;5014152;28;20559;-46
2021/06/26 11:31:12;;;;;;;4.60;4.20;;;;;;;;;;5006952;28;20218;-46
2021/06/26 11:33:42;;;;;;;4.38;4.07;;;;;;;;;;5009224;28;20199;-46
2021/06/26 11:36:12;;;;;;;5.07;4.68;;;;;;;;;;5013471;28;20199;-46
2021/06/26 11:38:38;;;;;;;5.38;4.40;;;;;;;;;;5005931;28;20452;-46
2021/06/26 11:41:11;;;;;;;7.13;4.50;;;;;;;;;;4995062;28;20177;-46
2021/06/26 11:43:38;;;;;;;5.15;4.18;;;;;;;;;;5004175;28;20229;-46
2021/06/26 11:46:05;;;;;;;4.18;3.83;;;;;;;;;;4994555;28;20204;-46
2021/06/26 11:48:31;;;;;;;4.28;3.88;;;;;;;;;;4994915;28;20169;-46
2021/06/26 11:51:05;;;;;;;4.25;3.67;;;;;;;;;;4994828;28;20201;-46
2021/06/26 11:53:32;;;;;;;4.35;3.88;;;;;;;;;;5016711;28;20582;-46
2021/06/26 11:55:59;;;;;;;4.18;3.85;;;;;;;;;;5033813;28;20543;-46
2021/06/26 11:58:44;;;;;;;3.83;3.53;;;;;;;;;;5024064;28;20180;-46
2021/06/26 12:01:10;;;;;;;3.83;3.53;;;;;;;;;;5014235;28;20187;-46
2021/06/26 12:03:36;;;;;;;4.03;3.65;;;;;;;;;;5000587;28;20205;-46
2021/06/26 12:06:04;;;;;;;4.30;3.90;;;;;;;;;;4995017;28;20208;-46
2021/06/26 12:08:41;;;;;;;4.13;3.58;;;;;;;;;;5005567;28;20223;-46
2021/06/26 12:11:10;;;;;;;3.88;3.58;;;;;;;;;;5012636;28;20209;-46
2021/06/26 12:13:36;;;;;;;3.40;3.10;;;;;;;;;;4995510;28;20204;-46
2021/06/26 12:16:02;;;;;;;4.00;3.60;;;;;;;;;;4994441;28;20199;-46
2021/06/26 12:18:28;;;;;;;3.67;3.38;;;;;;;;;;4997049;28;20454;-46
2021/06/26 12:20:56;;;;;;;5.10;3.45;;;;;;;;;;5013260;28;20184;-46
2021/06/26 12:23:23;;;;;;;3.75;3.30;;;;;;;;;;4999798;28;20508;-46
2021/06/26 12:25:49;;;;;;;3.72;3.42;;;;;;;;;;5010249;28;20187;-46
2021/06/26 12:28:15;;;;;;;3.80;3.50;;;;;;;;;;5033674;28;20211;-46
2021/06/26 12:30:42;;;;;;;3.40;3.20;;;;;;;;;;5030778;28;20277;-46
2021/06/26 12:33:09;;;;;;;3.75;3.45;;;;;;;;;;5005553;28;20199;-46
2021/06/26 12:35:36;;;;;;;5.10;4.13;;;;;;;;;;5014061;28;20555;-46
2021/06/26 12:38:03;;;;;;;3.95;3.65;;;;;;;;;;5005211;28;20185;-46
2021/06/26 12:40:31;;;;;;;4.38;3.88;;;;;;;;;;4998816;28;20271;-46
2021/06/26 12:43:12;;;;;;;6.97;4.18;;;;;;;;;;4998643;28;20181;-46
2021/06/26 12:45:45;;;;;;;4.38;4.00;;;;;;;;;;5004595;28;20184;-46
2021/06/26 12:48:16;;;;;;;4.00;3.70;;;;;;;;;;5012616;28;20272;-46
2021/06/26 12:50:46;;;;;;;4.43;3.80;;;;;;;;;;5013849;28;20204;-46
2021/06/26 12:53:13;;;;;;;5.65;3.80;;;;;;;;;;5003678;28;20191;-46
2021/06/26 12:55:39;;;;;;;5.30;3.60;;;;;;;;;;5036954;28;20164;-46
2021/06/26 12:58:08;;;;;;;4.20;3.90;;;;;;;;;;5028606;28;20176;-46
2021/06/26 13:00:34;;;;;;;4.47;4.07;;;;;;;;;;4998312;28;20196;-46
2021/06/26 13:03:00;;;;;;;4.22;3.60;;;;;;;;;;5004521;28;20193;-46
2021/06/26 13:05:26;;;;;;;6.68;4.63;;;;;;;;;;5017194;28;20177;-46
2021/06/26 13:08:05;;;;;;;4.47;4.07;;;;;;;;;;5000539;28;20190;-46
2021/06/26 13:10:31;;;;;;;4.70;4.30;;;;;;;;;;4998570;28;20201;-46
2021/06/26 13:12:57;;;;;;;4.88;4.47;;;;;;;;;;5014595;28;20187;-46
2021/06/26 13:15:23;;;;;;;5.00;4.25;;;;;;;;;;5001009;28;20196;-46
2021/06/26 13:17:49;;;;;;;5.85;4.00;;;;;;;;;;5009586;28;20235;-46
2021/06/26 13:20:15;;;;;;;6.18;4.65;;;;;;;;;;5011750;28;20184;-46
2021/06/26 13:22:42;;;;;;;5.25;4.65;;;;;;;;;;5018436;28;20188;-46
2021/06/26 13:25:10;;;;;;;6.53;5.00;;;;;;;;;;4999658;28;20679;-46
2021/06/26 13:27:40;;;;;;;6.05;4.30;;;;;;;;;;4996372;28;20173;-46
2021/06/26 13:30:08;;;;;;;4.93;4.43;;;;;;;;;;4996932;28;20230;-46
2021/06/26 13:32:34;;;;;;;5.15;4.70;;;;;;;;;;5000269;28;20253;-46
2021/06/26 13:34:59;;;;;;;5.43;4.53;;;;;;;;;;5002326;28;20260;-46
2021/06/26 13:37:25;;;;;;;12.38;4.70;;;;;;;;;;5005901;28;20289;-46
2021/06/26 13:39:51;;;;;;;4.85;4.45;;;;;;;;;;5008352;28;20181;-46
2021/06/26 13:42:17;;;;;;;5.38;4.60;;;;;;;;;;5001466;28;20200;-46
2021/06/26 13:44:43;;;;;;;4.70;4.25;;;;;;;;;;5016229;28;20180;-46
2021/06/26 13:47:09;;;;;;;4.85;4.43;;;;;;;;;;5014495;28;20203;-46
2021/06/26 13:49:35;;;;;;;4.90;4.40;;;;;;;;;;4996151;28;20201;-46
2021/06/26 13:52:01;;;;;;;4.63;4.22;;;;;;;;;;5007825;28;20185;-46
2021/06/26 13:54:27;;;;;;;4.35;4.05;;;;;;;;;;5011257;28;20271;-46
2021/06/26 13:56:53;;;;;;;5.38;4.63;;;;;;;;;;5015680;28;20173;-46
2021/06/26 13:59:19;;;;;;;5.15;4.47;;;;;;;;;;5014326;28;20655;-46
2021/06/26 14:01:45;;;;;;;6.50;4.47;;;;;;;;;;5006108;28;20260;-46
2021/06/26 14:04:11;;;;;;;4.57;4.18;;;;;;;;;;5012031;28;20192;-46
2021/06/26 14:06:37;;;;;;;4.30;4.00;;;;;;;;;;5008398;28;20489;-46
2021/06/26 14:09:04;;;;;;;4.40;4.00;;;;;;;;;;5007533;28;20180;-46
2021/06/26 14:11:30;;;;;;;4.35;3.97;;;;;;;;;;4996981;28;20284;-46
2021/06/26 14:13:56;;;;;;;4.43;4.13;;;;;;;;;;5001696;28;20200;-46
2021/06/26 14:16:22;;;;;;;6.25;4.03;;;;;;;;;;5011334;28;20214;-46
2021/06/26 14:18:48;;;;;;;5.90;4.68;;;;;;;;;;5005326;28;20227;-46
2021/06/26 14:21:14;;;;;;;4.15;3.85;;;;;;;;;;5014622;28;20181;-46
2021/06/26 14:23:40;;;;;;;4.00;3.70;;;;;;;;;;5003127;28;20173;-46
2021/06/26 14:26:06;;;;;;;4.40;4.00;;;;;;;;;;5003693;28;20185;-46
2021/06/26 14:28:32;;;;;;;5.72;4.00;;;;;;;;;;5014047;28;20506;-46
2021/06/26 14:30:59;;;;;;;4.43;4.07;;;;;;;;;;5003381;28;20216;-46
2021/06/26 14:33:25;;;;;;;5.82;3.95;;;;;;;;;;5005175;28;20192;-46
2021/06/26 14:35:51;;;;;;;4.60;4.20;;;;;;;;;;5014994;28;20169;-46
2021/06/26 14:38:17;;;;;;;4.75;4.07;;;;;;;;;;5002788;28;20232;-46
2021/06/26 14:40:43;;;;;;;5.63;3.90;;;;;;;;;;5015260;28;20568;-46
2021/06/26 14:43:10;;;;;;;4.20;3.80;;;;;;;;;;5010153;28;20189;-47
2021/06/26 14:45:36;;;;;;;5.35;4.40;;;;;;;;;;5014789;28;20189;-46